Salten — LMFM — position and weather

sailwx.info

Track history (hours):
 
Tides and Currents Weather Stations Pressure Air Temp Water Temp Dewpoint Dewpoint Depression Visibility Wind Speed Wind Dir Waves Ship Positions

Salten

Last reported at 2014-Jul-28 14:31 UTC. Time now 2014-Jul-29 00:32 UTC.
Position N 67°06' E 013°58'.

Length 41 m; draft 1.5 m.

Type: High speed craft. MMSI: 259387000.

Date/timePositionNaut miles runAvg speedWind from/ knotsBaromVisibWave heightAir tempDewpointWater temp
2014-Jul-28 14:31N 67°06' E 013°58'1414.6
2014-Jul-28 13:33N 67°17' E 014°22'0 0.0
2014-Jul-28 12:33N 67°17' E 014°22'0 0.0
2014-Jul-28 11:33N 67°17' E 014°22'0 0.0
2014-Jul-28 10:33N 67°17' E 014°22'1312.3
2014-Jul-28 09:30N 67°08' E 013°58'2 0.1
2014-Jul-27 11:26N 67°10' E 014°02'1112.0
2014-Jul-27 10:33N 67°17' E 014°22'0 0.0
2014-Jul-27 09:33N 67°17' E 014°22'0 0.0
2014-Jul-27 08:33N 67°17' E 014°22'0 0.0
2014-Jul-27 07:33N 67°17' E 014°22'0 0.0
2014-Jul-27 06:33N 67°17' E 014°22'0 0.0
2014-Jul-27 05:33N 67°17' E 014°22'0 0.0
2014-Jul-27 04:33N 67°17' E 014°22'0 0.0
2014-Jul-27 03:33N 67°17' E 014°22'0 0.0
2014-Jul-27 02:33N 67°17' E 014°22'0 0.0
2014-Jul-27 01:33N 67°17' E 014°22'0 0.0
2014-Jul-27 00:33N 67°17' E 014°22'0 0.0
2014-Jul-26 23:33N 67°17' E 014°22'0 0.0
2014-Jul-26 22:33N 67°17' E 014°22'0 0.0
2014-Jul-26 21:33N 67°17' E 014°22'0 0.0
2014-Jul-26 20:33N 67°17' E 014°22'0 0.0
2014-Jul-26 19:33N 67°17' E 014°22'0 0.0
2014-Jul-26 18:33N 67°17' E 014°22'0 0.0
2014-Jul-26 17:33N 67°17' E 014°22'0 0.0
2014-Jul-26 16:33N 67°17' E 014°22'0 0.0
2014-Jul-26 15:33N 67°17' E 014°22'0 0.0
2014-Jul-26 14:33N 67°17' E 014°22'0 0.0
2014-Jul-26 13:33N 67°17' E 014°22'0 0.0
2014-Jul-26 12:33N 67°17' E 014°22'0 0.0
2014-Jul-26 11:33N 67°17' E 014°22'0 0.0
2014-Jul-26 10:33N 67°17' E 014°22'0 0.0
2014-Jul-26 09:33N 67°17' E 014°22'0 0.4
2014-Jul-26 08:33N 67°17' E 014°23'4 0.2
2014-Jul-25 16:33N 67°21' E 014°26'4 4.1
2014-Jul-25 15:33N 67°17' E 014°22'8 3.9
2014-Jul-25 13:33N 67°24' E 014°31'7 7.4
2014-Jul-25 12:33N 67°17' E 014°23'0 0.3
2014-Jul-25 11:33N 67°17' E 014°22'0 0.0
2014-Jul-25 10:33N 67°17' E 014°22'0 0.0
2014-Jul-25 09:33N 67°17' E 014°22'0 0.0
2014-Jul-25 08:33N 67°17' E 014°22'1312.5
2014-Jul-25 07:33N 67°29' E 014°36'13 0.6
2014-Jul-24 09:05N 67°17' E 014°22'0 0.0
2014-Jul-24 08:33N 67°17' E 014°22'15 0.9
2014-Jul-23 16:20N 67°31' E 014°32'1518.8
2014-Jul-23 15:33N 67°17' E 014°22'0 0.0
2014-Jul-23 14:33N 67°17' E 014°22'0 0.0
2014-Jul-23 13:33N 67°17' E 014°22'0 0.0
2014-Jul-23 12:33N 67°17' E 014°22'0 0.0
2014-Jul-23 11:33N 67°17' E 014°22'0 0.0
2014-Jul-23 10:33N 67°17' E 014°22'4813.6
2014-Jul-23 07:03N 66°39' E 013°08'815.7
2014-Jul-23 06:33N 66°32' E 012°58'2618.5
2014-Jul-23 05:09N 66°07' E 012°46'6 3.1
2014-Jul-23 03:05N 66°01' E 012°38'0 0.0
2014-Jul-23 02:04N 66°01' E 012°38'21 2.8
2014-Jul-22 18:33N 66°21' E 012°57'5313.4
2014-Jul-22 14:33N 67°07' E 014°03'1212.3
2014-Jul-22 13:33N 67°17' E 014°22'0 0.0
2014-Jul-22 12:33N 67°17' E 014°22'0 0.0
2014-Jul-22 11:33N 67°17' E 014°22'0 0.0
2014-Jul-22 10:33N 67°17' E 014°22'0 0.0
2014-Jul-22 09:32N 67°17' E 014°22'0 0.0
2014-Jul-22 08:33N 67°17' E 014°22'7 0.4
2014-Jul-21 15:33N 67°24' E 014°27'7 7.3
2014-Jul-21 14:33N 67°17' E 014°22'0 0.0
2014-Jul-21 13:33N 67°17' E 014°22'0 0.0
2014-Jul-21 12:33N 67°17' E 014°22'0 0.0
2014-Jul-21 11:33N 67°17' E 014°22'0 0.0
2014-Jul-21 10:33N 67°17' E 014°22'0 0.0
2014-Jul-21 09:33N 67°17' E 014°22'0 0.0
2014-Jul-21 08:34N 67°17' E 014°22'8 8.0
2014-Jul-21 07:34N 67°25' E 014°27'8 0.6
2014-Jul-20 18:33N 67°17' E 014°22'0 0.2
2014-Jul-20 17:33N 67°17' E 014°22'8 0.3
2014-Jul-19 15:34N 67°24' E 014°27'8 7.5
2014-Jul-19 14:33N 67°17' E 014°22'0 0.0
2014-Jul-19 13:33N 67°17' E 014°22'0 0.0
2014-Jul-19 12:33N 67°17' E 014°22'0 0.0
2014-Jul-19 11:33N 67°17' E 014°22'0 0.0
2014-Jul-19 10:33N 67°17' E 014°22'0 0.0
2014-Jul-19 09:33N 67°17' E 014°22'0 0.0
2014-Jul-19 08:32N 67°17' E 014°22'8 0.5
2014-Jul-18 16:19N 67°24' E 014°31'810.4
2014-Jul-18 15:33N 67°17' E 014°22'  
Track history (hours):
 
Tides and Currents Weather Stations Pressure Air Temp Water Temp Dewpoint Dewpoint Depression Visibility Wind Speed Wind Dir Waves Ship Positions

Salten

Last reported at 2014-Jul-28 14:31 UTC. Time now 2014-Jul-29 00:32 UTC.
Position N 67°06' E 013°58'.

Length 41 m; draft 1.5 m.

Type: High speed craft. MMSI: 259387000.

Date/timePositionNaut miles runAvg speedWind from/ knotsBaromVisibWave heightAir tempDewpointWater temp
2014-Jul-28 14:31N 67°06' E 013°58'1414.6
2014-Jul-28 13:33N 67°17' E 014°22'0 0.0
2014-Jul-28 12:33N 67°17' E 014°22'0 0.0
2014-Jul-28 11:33N 67°17' E 014°22'0 0.0
2014-Jul-28 10:33N 67°17' E 014°22'1312.3
2014-Jul-28 09:30N 67°08' E 013°58'2 0.1
2014-Jul-27 11:26N 67°10' E 014°02'1112.0
2014-Jul-27 10:33N 67°17' E 014°22'0 0.0
2014-Jul-27 09:33N 67°17' E 014°22'0 0.0
2014-Jul-27 08:33N 67°17' E 014°22'0 0.0
2014-Jul-27 07:33N 67°17' E 014°22'0 0.0
2014-Jul-27 06:33N 67°17' E 014°22'0 0.0
2014-Jul-27 05:33N 67°17' E 014°22'0 0.0
2014-Jul-27 04:33N 67°17' E 014°22'0 0.0
2014-Jul-27 03:33N 67°17' E 014°22'0 0.0
2014-Jul-27 02:33N 67°17' E 014°22'0 0.0
2014-Jul-27 01:33N 67°17' E 014°22'0 0.0
2014-Jul-27 00:33N 67°17' E 014°22'0 0.0
2014-Jul-26 23:33N 67°17' E 014°22'0 0.0
2014-Jul-26 22:33N 67°17' E 014°22'0 0.0
2014-Jul-26 21:33N 67°17' E 014°22'0 0.0
2014-Jul-26 20:33N 67°17' E 014°22'0 0.0
2014-Jul-26 19:33N 67°17' E 014°22'0 0.0
2014-Jul-26 18:33N 67°17' E 014°22'0 0.0
2014-Jul-26 17:33N 67°17' E 014°22'0 0.0
2014-Jul-26 16:33N 67°17' E 014°22'0 0.0
2014-Jul-26 15:33N 67°17' E 014°22'0 0.0
2014-Jul-26 14:33N 67°17' E 014°22'0 0.0
2014-Jul-26 13:33N 67°17' E 014°22'0 0.0
2014-Jul-26 12:33N 67°17' E 014°22'0 0.0
2014-Jul-26 11:33N 67°17' E 014°22'0 0.0
2014-Jul-26 10:33N 67°17' E 014°22'0 0.0
2014-Jul-26 09:33N 67°17' E 014°22'0 0.4
2014-Jul-26 08:33N 67°17' E 014°23'4 0.2
2014-Jul-25 16:33N 67°21' E 014°26'4 4.1
2014-Jul-25 15:33N 67°17' E 014°22'8 3.9
2014-Jul-25 13:33N 67°24' E 014°31'7 7.4
2014-Jul-25 12:33N 67°17' E 014°23'0 0.3
2014-Jul-25 11:33N 67°17' E 014°22'0 0.0
2014-Jul-25 10:33N 67°17' E 014°22'0 0.0
2014-Jul-25 09:33N 67°17' E 014°22'0 0.0
2014-Jul-25 08:33N 67°17' E 014°22'1312.5
2014-Jul-25 07:33N 67°29' E 014°36'13 0.6
2014-Jul-24 09:05N 67°17' E 014°22'0 0.0
2014-Jul-24 08:33N 67°17' E 014°22'15 0.9
2014-Jul-23 16:20N 67°31' E 014°32'1518.8
2014-Jul-23 15:33N 67°17' E 014°22'0 0.0
2014-Jul-23 14:33N 67°17' E 014°22'0 0.0
2014-Jul-23 13:33N 67°17' E 014°22'0 0.0
2014-Jul-23 12:33N 67°17' E 014°22'0 0.0
2014-Jul-23 11:33N 67°17' E 014°22'0 0.0
2014-Jul-23 10:33N 67°17' E 014°22'4813.6
2014-Jul-23 07:03N 66°39' E 013°08'815.7
2014-Jul-23 06:33N 66°32' E 012°58'2618.5
2014-Jul-23 05:09N 66°07' E 012°46'6 3.1
2014-Jul-23 03:05N 66°01' E 012°38'0 0.0
2014-Jul-23 02:04N 66°01' E 012°38'21 2.8
2014-Jul-22 18:33N 66°21' E 012°57'5313.4
2014-Jul-22 14:33N 67°07' E 014°03'1212.3
2014-Jul-22 13:33N 67°17' E 014°22'0 0.0
2014-Jul-22 12:33N 67°17' E 014°22'0 0.0
2014-Jul-22 11:33N 67°17' E 014°22'0 0.0
2014-Jul-22 10:33N 67°17' E 014°22'0 0.0
2014-Jul-22 09:32N 67°17' E 014°22'0 0.0
2014-Jul-22 08:33N 67°17' E 014°22'7 0.4
2014-Jul-21 15:33N 67°24' E 014°27'7 7.3
2014-Jul-21 14:33N 67°17' E 014°22'0 0.0
2014-Jul-21 13:33N 67°17' E 014°22'0 0.0
2014-Jul-21 12:33N 67°17' E 014°22'0 0.0
2014-Jul-21 11:33N 67°17' E 014°22'0 0.0
2014-Jul-21 10:33N 67°17' E 014°22'0 0.0
2014-Jul-21 09:33N 67°17' E 014°22'0 0.0
2014-Jul-21 08:34N 67°17' E 014°22'8 8.0
2014-Jul-21 07:34N 67°25' E 014°27'8 0.6
2014-Jul-20 18:33N 67°17' E 014°22'0 0.2
2014-Jul-20 17:33N 67°17' E 014°22'8 0.3
2014-Jul-19 15:34N 67°24' E 014°27'8 7.5
2014-Jul-19 14:33N 67°17' E 014°22'0 0.0
2014-Jul-19 13:33N 67°17' E 014°22'0 0.0
2014-Jul-19 12:33N 67°17' E 014°22'0 0.0
2014-Jul-19 11:33N 67°17' E 014°22'0 0.0
2014-Jul-19 10:33N 67°17' E 014°22'0 0.0
2014-Jul-19 09:33N 67°17' E 014°22'0 0.0
2014-Jul-19 08:32N 67°17' E 014°22'8 0.5
2014-Jul-18 16:19N 67°24' E 014°31'810.4
2014-Jul-18 15:33N 67°17' E 014°22'  

Dump ship's entire track history